Saturday, August 30, 2014
20:23 UTC
  |  Log In   |  Register Free
Airport Search:

Gainesville Municipal Airport
(KGLE)

FAA data valid effective July 24, 2014 until September 18, 2014 (unless otherwise noted).

 
 
 
 
 
 
 
 
 
 
 
 
 
 

Current Aviation Weather for Gainesville Municipal Airport (KGLE)

The most recent METAR observation for KGLE was updated at: 1955 UTC
METAR Summary (Translated METAR)
KGLE
301955Z AUTO 10003KT 10SM BKN049 BKN070 31/20 A2994 RMK AO2 T03120201
KGYI
(26.4 nm NE from KGLE)
301955Z AUTO 08005KT 10SM -RA SCT049 BKN070 OVC080 30/21 A2994 RMK AO2 T03030211
TAF
No TAF information found within 50 nm of KGLE
  Airport Weather Conditions for KGLE

 Current Weather at GLE
88° F
Mostly Cloudy
East winds at 3.5 mph
GLE NOAA Radar

Pressure: 29.94 in
Humidity: 52%
Wind: East at 3.5 MPH (3 KT)
Dew Point: 68.2°F
Visibility: 10.00 mi


Airport Weather Forecast for KGLE

Translated METAR and TAF for KGLE
Translated METAR for KGLE (2017 UTC 30 August 2014)
found at http://aviationweather.gov/adds/metars/
 
METAR text: KGLE 301955Z AUTO 10003KT 10SM BKN049 BKN070 31/20 A2994 RMK AO2 T03120201
Conditions at: KGLE (GAINESVILLE , TX, US) observed 1955 UTC 30 August 2014
Temperature: 31.2°C (88°F)
Dewpoint: 20.1°C (68°F) [RH = 52%]
Pressure (altimeter): 29.94 inches Hg (1014.0 mb)
Winds: from the E (100 degrees) at 3 MPH (3 knots; 1.6 m/s)
Visibility: 10 or more miles (16+ km)
Ceiling: 4900 feet AGL
Clouds: broken clouds at 4900 feet AGL
broken clouds at 7000 feet AGL
Weather: automated observation with no human augmentation;
there may or may not be significant weather present at this time
Translated TAF for KGLE

There is no translated TAF available for this airport

Find All Airport Services Find A Hotel Find A Rental Car Find A Golf Course Find A Restaurant $100 Hamburger



FBO's on the Field
FBO Company Facility Photos Services Transportation Aviation Fuel Prices: Prices include tax
Catering Weather Repair Courtesy Rental Type 100LL JetA JetA+ MOGAS 8087
 
City of Gainesville Municipal Airport

This FBO has not yet been rated
FS:Phillips66
Last Updated: Aug-10
Login to update fuel prices
SS:
Contact City of Gainesville Municipal AirportMore FBO Information
 
Add another FBO Facility Photos Catering Weather Repair Courtesy Rental Type 100LL JetA JetA+ MOGAS 8087
Services Transportation Aviation Fuel Prices: Prices include tax


GlobalAir.com Airport Resource Center model-print
model-print
model-print
model-print